| time (UTC) | temp F | wind direction | speed MPH | gust MPH | rain 1hr in | rain 24hr in | rain mn in | humidity % | barometer mb |
| 20260904041502 | 53 | 108 | 1.0 | 4.0 | 0.00 | 0.47 | 0.47 | 94 | 1010.1 |
| 20260904040100 | 53 | 132 | 1.0 | 3.0 | 0.01 | 0.47 | 0.47 | 94 | 1010.2 |
| 20260904034600 | 53 | 127 | 2.0 | 5.0 | 0.01 | 0.47 | 0.47 | 94 | 1010.1 |
| 20260904033103 | 53 | 115 | 2.0 | 7.0 | 0.02 | 0.47 | 0.47 | 94 | 1010.0 |
| 20260904031608 | 53 | 95 | 1.0 | 5.0 | 0.05 | 0.47 | 0.47 | 94 | 1010.0 |
| 20260904030100 | 54 | 187 | 0.0 | 0.0 | 0.06 | 0.46 | 0.46 | 94 | 1010.1 |
| 20260904024558 | 54 | 187 | 0.0 | 3.0 | 0.06 | 0.46 | 0.46 | 94 | 1010.2 |
| 20260904023057 | 54 | 120 | 0.0 | 3.0 | 0.05 | 0.45 | 0.45 | 94 | 1010.2 |
| 20260904021556 | 55 | 133 | 0.0 | 0.0 | 0.01 | 0.41 | 0.41 | 94 | 1010.1 |
| 20260904020159 | 54 | 133 | 0.0 | 0.0 | 0.00 | 0.40 | 0.40 | 94 | 1010.0 |
| 20260904014557 | 54 | 133 | 0.0 | 0.0 | 0.02 | 0.42 | 0.40 | 94 | 1009.9 |
| 20260904013055 | 54 | 108 | 1.0 | 3.0 | 0.02 | 0.42 | 0.40 | 93 | 1009.8 |
| 20260904011555 | 54 | 210 | 0.0 | 0.0 | 0.04 | 0.42 | 0.40 | 93 | 1009.9 |
| 20260904010054 | 54 | 183 | 0.0 | 5.0 | 0.06 | 0.42 | 0.40 | 93 | 1010.0 |
| 20260904004552 | 55 | 108 | 1.0 | 6.0 | 0.07 | 0.40 | 0.38 | 93 | 1009.9 |
| 20260904003052 | 56 | 122 | 0.0 | 0.0 | 0.08 | 0.40 | 0.38 | 93 | 1010.0 |
| 20260904001552 | 56 | 241 | 0.0 | 1.0 | 0.06 | 0.38 | 0.36 | 93 | 1010.1 |
| 20260904000050 | 56 | 124 | 0.0 | 1.0 | 0.04 | 0.36 | 0.34 | 93 | 1010.2 |
| 20260903234550 | 56 | 157 | 0.0 | 1.0 | 0.01 | 0.45 | 0.31 | 93 | 1010.1 |
| 20260903233050 | 56 | 205 | 0.0 | 0.0 | 0.05 | 0.44 | 0.30 | 94 | 1010.0 |
| 20260903231554 | 55 | 206 | 0.0 | 1.0 | 0.06 | 0.44 | 0.30 | 93 | 1010.1 |
| 20260903230050 | 54 | 206 | 0.0 | 1.0 | 0.06 | 0.44 | 0.30 | 92 | 1010.1 |
| 20260903224548 | 54 | 219 | 0.0 | 5.0 | 0.06 | 0.49 | 0.30 | 90 | 1010.2 |
| 20260903223047 | 54 | 198 | 0.0 | 2.0 | 0.02 | 0.44 | 0.25 | 90 | 1010.4 |
| 20260903221550 | 54 | 224 | 0.0 | 1.0 | 0.08 | 0.43 | 0.24 | 90 | 1010.2 |
| 20260903220045 | 53 | 199 | 0.0 | 1.0 | 0.08 | 0.43 | 0.24 | 89 | 1010.2 |
| 20260903214545 | 53 | 214 | 0.0 | 3.0 | 0.08 | 0.44 | 0.24 | 86 | 1010.4 |
| 20260903213043 | 53 | 216 | 0.0 | 11.0 | 0.07 | 0.43 | 0.23 | 84 | 1010.7 |
| 20260903211548 | 55 | 199 | 0.0 | 7.0 | 0.00 | 0.36 | 0.16 | 81 | 1010.5 |
| 20260903210042 | 56 | 210 | 2.0 | 11.0 | 0.00 | 0.36 | 0.16 | 80 | 1010.4 |
| 20260903204541 | 57 | 229 | 0.0 | 5.0 | 0.00 | 0.36 | 0.16 | 81 | 1010.3 |
| 20260903203048 | 57 | 225 | 0.0 | 4.0 | 0.00 | 0.36 | 0.16 | 85 | 1010.4 |
| 20260903201537 | 57 | 204 | 2.0 | 8.0 | 0.00 | 0.36 | 0.16 | 86 | 1010.5 |
| 20260903200044 | 56 | 184 | 0.0 | 6.0 | 0.00 | 0.36 | 0.16 | 87 | 1010.6 |
| 20260903194542 | 56 | 157 | 0.0 | 2.0 | 0.00 | 0.38 | 0.16 | 88 | 1010.6 |
| 20260903193036 | 56 | 170 | 0.0 | 4.0 | 0.00 | 0.38 | 0.16 | 88 | 1010.7 |
| 20260903191536 | 56 | 145 | 0.0 | 3.0 | 0.01 | 0.38 | 0.16 | 89 | 1010.7 |
| 20260903190032 | 57 | 172 | 0.0 | 4.0 | 0.02 | 0.38 | 0.16 | 90 | 1010.7 |
| 20260903184533 | 56 | 203 | 0.0 | 5.0 | 0.02 | 0.51 | 0.16 | 90 | 1010.6 |
| 20260903183032 | 57 | 103 | 0.0 | 1.0 | 0.04 | 0.51 | 0.16 | 91 | 1010.6 |
| 20260903181530 | 56 | 229 | 0.0 | 1.0 | 0.04 | 0.50 | 0.15 | 90 | 1010.6 |
| 20260903180047 | 56 | 80 | 0.0 | 2.0 | 0.04 | 0.49 | 0.14 | 89 | 1010.7 |
| 20260903174528 | 55 | 174 | 0.0 | 2.0 | 0.04 | 0.54 | 0.14 | 88 | 1010.7 |
| 20260903173027 | 56 | 184 | 0.0 | 2.0 | 0.02 | 0.52 | 0.12 | 87 | 1010.7 |
| 20260903171526 | 56 | 219 | 0.0 | 1.0 | 0.01 | 0.51 | 0.11 | 86 | 1010.8 |
| 20260903170026 | 56 | 181 | 0.0 | 6.0 | 0.00 | 0.50 | 0.10 | 86 | 1010.7 |
| 20260903164525 | 56 | 195 | 0.0 | 5.0 | 0.00 | 0.54 | 0.10 | 87 | 1010.7 |
| 20260903163037 | 56 | 146 | 1.0 | 4.0 | 0.00 | 0.54 | 0.10 | 89 | 1010.6 |
| 20260903161522 | 55 | 139 | 0.0 | 4.0 | 0.00 | 0.54 | 0.10 | 91 | 1010.8 |
| 20260903160020 | 55 | 107 | 1.0 | 4.0 | 0.00 | 0.54 | 0.10 | 91 | 1010.7 |
| 20260903154519 | 55 | 153 | 0.0 | 7.0 | 0.00 | 0.54 | 0.10 | 94 | 1010.8 |
| 20260903153015 | 54 | 111 | 1.0 | 4.0 | 0.00 | 0.54 | 0.10 | 94 | 1010.6 |
| 20260903151521 | 53 | 152 | 0.0 | 2.0 | 0.00 | 0.54 | 0.10 | 94 | 1010.6 |
| 20260903150014 | 53 | 142 | 1.0 | 3.0 | 0.00 | 0.54 | 0.10 | 93 | 1010.6 |
| 20260903144513 | 53 | 138 | 0.0 | 3.0 | 0.02 | 0.54 | 0.10 | 93 | 1010.6 |
| 20260903143014 | 53 | 176 | 1.0 | 4.0 | 0.06 | 0.54 | 0.10 | 92 | 1010.5 |
| 20260903141514 | 53 | 248 | 0.0 | 0.0 | 0.08 | 0.54 | 0.10 | 92 | 1010.5 |
| 20260903140017 | 53 | 248 | 0.0 | 0.0 | 0.08 | 0.53 | 0.09 | 92 | 1010.7 |
| 20260903134509 | 53 | 248 | 0.0 | 4.0 | 0.06 | 0.51 | 0.07 | 91 | 1010.7 |
| 20260903133008 | 54 | 204 | 0.0 | 6.0 | 0.03 | 0.48 | 0.04 | 91 | 1010.7 |
| 20260903131507 | 54 | 228 | 0.0 | 5.0 | 0.01 | 0.46 | 0.02 | 91 | 1010.5 |
| 20260903130018 | 54 | 217 | 1.0 | 4.0 | 0.00 | 0.45 | 0.01 | 92 | 1010.2 |
| 20260903124505 | 54 | 154 | 0.0 | 1.0 | 0.00 | 0.45 | 0.01 | 92 | 1010.2 |
| 20260903123004 | 54 | 165 | 0.0 | 3.0 | 0.00 | 0.45 | 0.01 | 92 | 1010.3 |
| 20260903121503 | 53 | 176 | 1.0 | 3.0 | 0.00 | 0.45 | 0.01 | 92 | 1010.3 |
| 20260903120004 | 53 | 146 | 1.0 | 4.0 | 0.01 | 0.45 | 0.01 | 92 | 1010.4 |
| 20260903114502 | 53 | 150 | 0.0 | 5.0 | 0.01 | 0.45 | 0.01 | 92 | 1010.5 |
| 20260903113003 | 54 | 134 | 0.0 | 4.0 | 0.01 | 0.45 | 0.01 | 92 | 1010.4 |
| 20260903111621 | 54 | 152 | 1.0 | 4.0 | 0.01 | 0.45 | 0.01 | 92 | 1010.5 |
| 20260903110123 | 54 | 198 | 0.0 | 1.0 | 0.00 | 0.44 | 0.00 | 92 | 1010.4 |
| 20260903104559 | 54 | 198 | 1.0 | 3.0 | 0.00 | 0.44 | 0.00 | 92 | 1010.6 |
| 20260903103059 | 54 | 198 | 0.0 | 1.0 | 0.00 | 0.44 | 0.00 | 93 | 1010.6 |
| 20260903101605 | 54 | 217 | 0.0 | 3.0 | 0.00 | 0.44 | 0.00 | 93 | 1010.6 |
| 20260903100057 | 54 | 241 | 0.0 | 2.0 | 0.00 | 0.44 | 0.00 | 93 | 1010.5 |
| 20260903094559 | 54 | 171 | 0.0 | 4.0 | 0.00 | 0.44 | 0.00 | 94 | 1010.4 |
| 20260903093054 | 54 | 191 | 2.0 | 9.0 | 0.00 | 0.44 | 0.00 | 94 | 1010.6 |
| 20260903091553 | 54 | 206 | 1.0 | 3.0 | 0.00 | 0.44 | 0.00 | 94 | 1010.7 |
| 20260903090053 | 54 | 193 | 0.0 | 2.0 | 0.00 | 0.44 | 0.00 | 94 | 1010.8 |
| 20260903084552 | 54 | 191 | 0.0 | 1.0 | 0.00 | 0.44 | 0.00 | 94 | 1010.8 |
| 20260903083051 | 54 | 169 | 0.0 | 0.0 | 0.00 | 0.44 | 0.00 | 94 | 1010.8 |
| 20260903081551 | 54 | 141 | 0.0 | 0.0 | 0.00 | 0.44 | 0.00 | 94 | 1011.0 |
| 20260903080049 | 54 | 139 | 0.0 | 3.0 | 0.00 | 0.44 | 0.00 | 94 | 1011.0 |
| 20260903074557 | 54 | 137 | 0.0 | 1.0 | 0.00 | 0.44 | 0.00 | 94 | 1010.9 |
| 20260903073048 | 54 | 139 | 0.0 | 4.0 | 0.00 | 0.44 | 0.00 | 94 | 1010.7 |
| 20260903071551 | 54 | 160 | 0.0 | 0.0 | 0.00 | 0.44 | 0.00 | 94 | 1010.7 |
| 20260903070043 | 54 | 143 | 0.0 | 0.0 | 0.00 | 0.44 | 0.00 | 94 | 1010.6 |
| 20260903064542 | 54 | 219 | 0.0 | 0.0 | 0.00 | 0.44 | 0.44 | 95 | 1010.7 |
| 20260903063042 | 54 | 219 | 0.0 | 0.0 | 0.00 | 0.44 | 0.44 | 94 | 1010.8 |
| 20260903061643 | 54 | 122 | 0.0 | 0.0 | 0.00 | 0.44 | 0.44 | 94 | 1010.8 |
| 20260903060039 | 54 | 122 | 0.0 | 0.0 | 0.00 | 0.44 | 0.44 | 94 | 1010.8 |
| 20260903054546 | 55 | 193 | 0.0 | 0.0 | 0.00 | 0.44 | 0.44 | 94 | 1010.8 |
| 20260903053059 | 55 | 193 | 0.0 | 0.0 | 0.00 | 0.44 | 0.44 | 94 | 1010.8 |
| 20260903051536 | 55 | 193 | 0.0 | 4.0 | 0.00 | 0.44 | 0.44 | 94 | 1010.8 |
| 20260903050036 | 55 | 200 | 0.0 | 3.0 | 0.00 | 0.44 | 0.44 | 94 | 1010.8 |
| 20260903044545 | 55 | 194 | 0.0 | 2.0 | 0.00 | 0.44 | 0.44 | 94 | 1010.5 |
| 20260903043034 | 55 | 252 | 0.0 | 2.0 | 0.00 | 0.44 | 0.44 | 94 | 1010.4 |